sensor_id;sensor_type;location;lat;lon;timestamp;P1;durP1;ratioP1;P2;durP2;ratioP2
13698;SDS011;6921;53.642;9.956;2022-08-14T00:00:17;3.78;;;3.30;;
13698;SDS011;6921;53.642;9.956;2022-08-14T00:02:21;3.90;;;3.50;;
13698;SDS011;6921;53.642;9.956;2022-08-14T00:04:24;5.05;;;3.22;;
13698;SDS011;6921;53.642;9.956;2022-08-14T00:06:32;4.72;;;3.50;;
13698;SDS011;6921;53.642;9.956;2022-08-14T00:08:36;3.40;;;3.20;;
13698;SDS011;6921;53.642;9.956;2022-08-14T00:10:44;5.18;;;3.35;;
13698;SDS011;6921;53.642;9.956;2022-08-14T00:12:52;3.95;;;3.53;;
13698;SDS011;6921;53.642;9.956;2022-08-14T00:14:58;4.35;;;3.63;;
13698;SDS011;6921;53.642;9.956;2022-08-14T00:17:03;3.90;;;3.45;;
13698;SDS011;6921;53.642;9.956;2022-08-14T00:19:06;3.55;;;3.28;;
13698;SDS011;6921;53.642;9.956;2022-08-14T00:21:20;4.47;;;3.50;;
13698;SDS011;6921;53.642;9.956;2022-08-14T00:23:28;4.68;;;3.25;;
13698;SDS011;6921;53.642;9.956;2022-08-14T00:25:32;3.25;;;3.00;;
13698;SDS011;6921;53.642;9.956;2022-08-14T00:27:42;3.40;;;3.20;;
13698;SDS011;6921;53.642;9.956;2022-08-14T00:29:49;6.03;;;3.30;;
13698;SDS011;6921;53.642;9.956;2022-08-14T00:31:55;3.67;;;3.35;;
13698;SDS011;6921;53.642;9.956;2022-08-14T00:33:58;3.60;;;3.30;;
13698;SDS011;6921;53.642;9.956;2022-08-14T00:36:21;3.53;;;3.22;;
13698;SDS011;6921;53.642;9.956;2022-08-14T00:38:38;3.78;;;3.47;;
13698;SDS011;6921;53.642;9.956;2022-08-14T00:40:41;3.60;;;3.17;;
13698;SDS011;6921;53.642;9.956;2022-08-14T00:42:46;3.97;;;3.67;;
13698;SDS011;6921;53.642;9.956;2022-08-14T00:44:53;3.65;;;3.35;;
13698;SDS011;6921;53.642;9.956;2022-08-14T00:46:58;3.88;;;3.60;;
13698;SDS011;6921;53.642;9.956;2022-08-14T00:49:01;3.60;;;3.30;;
13698;SDS011;6921;53.642;9.956;2022-08-14T00:51:06;3.80;;;3.50;;
13698;SDS011;6921;53.642;9.956;2022-08-14T00:53:11;4.90;;;3.88;;
13698;SDS011;6921;53.642;9.956;2022-08-14T00:55:15;7.88;;;4.82;;
13698;SDS011;6921;53.642;9.956;2022-08-14T00:57:20;6.93;;;3.90;;
13698;SDS011;6921;53.642;9.956;2022-08-14T00:59:24;5.18;;;4.57;;
13698;SDS011;6921;53.642;9.956;2022-08-14T01:01:28;5.38;;;4.70;;
13698;SDS011;6921;53.642;9.956;2022-08-14T01:03:35;6.43;;;4.80;;
13698;SDS011;6921;53.642;9.956;2022-08-14T01:05:39;5.10;;;4.60;;
13698;SDS011;6921;53.642;9.956;2022-08-14T01:07:52;4.32;;;3.92;;
13698;SDS011;6921;53.642;9.956;2022-08-14T01:09:58;4.40;;;4.00;;
13698;SDS011;6921;53.642;9.956;2022-08-14T01:12:05;5.03;;;4.05;;
13698;SDS011;6921;53.642;9.956;2022-08-14T01:14:09;3.75;;;3.45;;
13698;SDS011;6921;53.642;9.956;2022-08-14T01:16:18;4.03;;;3.63;;
13698;SDS011;6921;53.642;9.956;2022-08-14T01:18:23;3.60;;;3.25;;
13698;SDS011;6921;53.642;9.956;2022-08-14T01:20:46;3.60;;;3.30;;
13698;SDS011;6921;53.642;9.956;2022-08-14T01:23:06;4.22;;;3.75;;
13698;SDS011;6921;53.642;9.956;2022-08-14T01:25:10;5.80;;;3.63;;
13698;SDS011;6921;53.642;9.956;2022-08-14T01:27:14;3.92;;;3.47;;
13698;SDS011;6921;53.642;9.956;2022-08-14T01:29:19;4.25;;;3.38;;
13698;SDS011;6921;53.642;9.956;2022-08-14T01:31:29;3.40;;;3.20;;
13698;SDS011;6921;53.642;9.956;2022-08-14T01:33:37;5.45;;;3.25;;
13698;SDS011;6921;53.642;9.956;2022-08-14T01:36:00;4.22;;;3.83;;
13698;SDS011;6921;53.642;9.956;2022-08-14T01:38:09;6.55;;;3.90;;
13698;SDS011;6921;53.642;9.956;2022-08-14T01:40:15;5.13;;;3.55;;
13698;SDS011;6921;53.642;9.956;2022-08-14T01:42:20;3.85;;;3.55;;
13698;SDS011;6921;53.642;9.956;2022-08-14T01:44:32;4.15;;;3.75;;
13698;SDS011;6921;53.642;9.956;2022-08-14T01:46:37;3.97;;;3.58;;
13698;SDS011;6921;53.642;9.956;2022-08-14T01:48:42;3.88;;;3.58;;
13698;SDS011;6921;53.642;9.956;2022-08-14T01:50:47;4.28;;;3.72;;
13698;SDS011;6921;53.642;9.956;2022-08-14T01:52:50;4.35;;;3.65;;
13698;SDS011;6921;53.642;9.956;2022-08-14T01:55:01;4.85;;;3.70;;
13698;SDS011;6921;53.642;9.956;2022-08-14T01:57:07;3.80;;;3.40;;
13698;SDS011;6921;53.642;9.956;2022-08-14T01:59:17;3.95;;;3.35;;
13698;SDS011;6921;53.642;9.956;2022-08-14T02:01:22;4.25;;;3.30;;
13698;SDS011;6921;53.642;9.956;2022-08-14T02:03:28;3.65;;;3.35;;
13698;SDS011;6921;53.642;9.956;2022-08-14T02:05:32;4.28;;;3.40;;
13698;SDS011;6921;53.642;9.956;2022-08-14T02:07:38;4.97;;;3.60;;
13698;SDS011;6921;53.642;9.956;2022-08-14T02:09:54;4.53;;;3.80;;
13698;SDS011;6921;53.642;9.956;2022-08-14T02:11:58;3.85;;;3.40;;
13698;SDS011;6921;53.642;9.956;2022-08-14T02:14:03;5.15;;;3.40;;
13698;SDS011;6921;53.642;9.956;2022-08-14T02:16:08;3.97;;;3.60;;
13698;SDS011;6921;53.642;9.956;2022-08-14T02:18:13;3.97;;;3.63;;
13698;SDS011;6921;53.642;9.956;2022-08-14T02:20:18;4.43;;;3.53;;
13698;SDS011;6921;53.642;9.956;2022-08-14T02:22:23;3.85;;;3.55;;
13698;SDS011;6921;53.642;9.956;2022-08-14T02:24:30;6.18;;;3.58;;
13698;SDS011;6921;53.642;9.956;2022-08-14T02:26:41;3.50;;;3.28;;
13698;SDS011;6921;53.642;9.956;2022-08-14T02:29:03;8.02;;;3.92;;
13698;SDS011;6921;53.642;9.956;2022-08-14T02:31:08;5.30;;;3.30;;
13698;SDS011;6921;53.642;9.956;2022-08-14T02:33:12;4.20;;;3.80;;
13698;SDS011;6921;53.642;9.956;2022-08-14T02:35:15;3.30;;;3.10;;
13698;SDS011;6921;53.642;9.956;2022-08-14T02:37:19;3.53;;;3.22;;
13698;SDS011;6921;53.642;9.956;2022-08-14T02:39:23;3.55;;;3.25;;
13698;SDS011;6921;53.642;9.956;2022-08-14T02:41:26;3.67;;;3.35;;
13698;SDS011;6921;53.642;9.956;2022-08-14T02:43:33;3.92;;;3.58;;
13698;SDS011;6921;53.642;9.956;2022-08-14T02:45:39;3.95;;;3.50;;
13698;SDS011;6921;53.642;9.956;2022-08-14T02:47:45;3.72;;;3.15;;
13698;SDS011;6921;53.642;9.956;2022-08-14T02:49:48;6.55;;;3.40;;
13698;SDS011;6921;53.642;9.956;2022-08-14T02:51:55;5.45;;;3.53;;
13698;SDS011;6921;53.642;9.956;2022-08-14T02:54:00;3.40;;;3.17;;
13698;SDS011;6921;53.642;9.956;2022-08-14T02:56:04;4.43;;;3.30;;
13698;SDS011;6921;53.642;9.956;2022-08-14T02:58:10;3.83;;;3.20;;
13698;SDS011;6921;53.642;9.956;2022-08-14T03:00:21;4.28;;;3.53;;
13698;SDS011;6921;53.642;9.956;2022-08-14T03:02:26;3.67;;;3.05;;
13698;SDS011;6921;53.642;9.956;2022-08-14T03:04:49;3.88;;;3.47;;
13698;SDS011;6921;53.642;9.956;2022-08-14T03:06:54;6.80;;;3.40;;
13698;SDS011;6921;53.642;9.956;2022-08-14T03:09:08;3.95;;;3.30;;
13698;SDS011;6921;53.642;9.956;2022-08-14T03:11:12;3.45;;;3.13;;
13698;SDS011;6921;53.642;9.956;2022-08-14T03:13:16;3.47;;;3.10;;
13698;SDS011;6921;53.642;9.956;2022-08-14T03:15:22;4.38;;;3.50;;
13698;SDS011;6921;53.642;9.956;2022-08-14T03:17:27;3.88;;;3.50;;
13698;SDS011;6921;53.642;9.956;2022-08-14T03:19:32;4.82;;;3.55;;
13698;SDS011;6921;53.642;9.956;2022-08-14T03:21:35;3.63;;;3.33;;
13698;SDS011;6921;53.642;9.956;2022-08-14T03:23:40;3.60;;;3.30;;
13698;SDS011;6921;53.642;9.956;2022-08-14T03:25:44;4.55;;;3.20;;
13698;SDS011;6921;53.642;9.956;2022-08-14T03:27:47;3.50;;;3.20;;
13698;SDS011;6921;53.642;9.956;2022-08-14T03:29:59;3.50;;;3.20;;
13698;SDS011;6921;53.642;9.956;2022-08-14T03:32:05;3.80;;;3.50;;
13698;SDS011;6921;53.642;9.956;2022-08-14T03:34:10;3.65;;;3.35;;
13698;SDS011;6921;53.642;9.956;2022-08-14T03:36:25;3.97;;;3.47;;
13698;SDS011;6921;53.642;9.956;2022-08-14T03:38:49;3.90;;;3.60;;
13698;SDS011;6921;53.642;9.956;2022-08-14T03:41:17;5.72;;;3.40;;
13698;SDS011;6921;53.642;9.956;2022-08-14T03:43:23;5.53;;;3.30;;
13698;SDS011;6921;53.642;9.956;2022-08-14T03:45:28;6.10;;;3.70;;
13698;SDS011;6921;53.642;9.956;2022-08-14T03:47:35;6.35;;;3.38;;
13698;SDS011;6921;53.642;9.956;2022-08-14T03:49:48;3.80;;;3.50;;
13698;SDS011;6921;53.642;9.956;2022-08-14T03:51:51;3.65;;;3.30;;
13698;SDS011;6921;53.642;9.956;2022-08-14T03:53:53;3.53;;;3.22;;
13698;SDS011;6921;53.642;9.956;2022-08-14T03:55:58;3.80;;;3.33;;
13698;SDS011;6921;53.642;9.956;2022-08-14T03:58:01;3.88;;;3.58;;
13698;SDS011;6921;53.642;9.956;2022-08-14T04:00:06;3.33;;;3.10;;
13698;SDS011;6921;53.642;9.956;2022-08-14T04:02:14;5.18;;;3.15;;
13698;SDS011;6921;53.642;9.956;2022-08-14T04:04:33;4.22;;;3.50;;
13698;SDS011;6921;53.642;9.956;2022-08-14T04:06:39;3.63;;;3.33;;
13698;SDS011;6921;53.642;9.956;2022-08-14T04:08:42;4.22;;;3.53;;
13698;SDS011;6921;53.642;9.956;2022-08-14T04:10:46;6.65;;;3.40;;
13698;SDS011;6921;53.642;9.956;2022-08-14T04:12:49;5.07;;;3.53;;
13698;SDS011;6921;53.642;9.956;2022-08-14T04:14:52;5.82;;;3.42;;
13698;SDS011;6921;53.642;9.956;2022-08-14T04:16:55;4.38;;;3.67;;
13698;SDS011;6921;53.642;9.956;2022-08-14T04:18:59;5.30;;;3.65;;
13698;SDS011;6921;53.642;9.956;2022-08-14T04:21:04;3.65;;;3.33;;
13698;SDS011;6921;53.642;9.956;2022-08-14T04:23:09;4.63;;;3.55;;
13698;SDS011;6921;53.642;9.956;2022-08-14T04:25:15;3.85;;;3.53;;
13698;SDS011;6921;53.642;9.956;2022-08-14T04:27:19;4.53;;;3.42;;
13698;SDS011;6921;53.642;9.956;2022-08-14T04:29:23;3.72;;;3.42;;
13698;SDS011;6921;53.642;9.956;2022-08-14T04:31:26;3.83;;;3.47;;
13698;SDS011;6921;53.642;9.956;2022-08-14T04:33:50;3.72;;;3.15;;
13698;SDS011;6921;53.642;9.956;2022-08-14T04:35:54;4.40;;;3.53;;
13698;SDS011;6921;53.642;9.956;2022-08-14T04:37:57;3.65;;;3.35;;
13698;SDS011;6921;53.642;9.956;2022-08-14T04:40:38;4.40;;;3.97;;
13698;SDS011;6921;53.642;9.956;2022-08-14T04:42:59;4.57;;;3.78;;
13698;SDS011;6921;53.642;9.956;2022-08-14T04:45:21;3.80;;;3.38;;
13698;SDS011;6921;53.642;9.956;2022-08-14T04:47:25;7.03;;;3.35;;
13698;SDS011;6921;53.642;9.956;2022-08-14T04:49:46;4.30;;;3.65;;
13698;SDS011;6921;53.642;9.956;2022-08-14T04:51:57;3.55;;;3.30;;
13698;SDS011;6921;53.642;9.956;2022-08-14T04:54:03;4.65;;;3.95;;
13698;SDS011;6921;53.642;9.956;2022-08-14T04:56:08;3.95;;;3.30;;
13698;SDS011;6921;53.642;9.956;2022-08-14T04:58:32;5.53;;;3.50;;
13698;SDS011;6921;53.642;9.956;2022-08-14T05:00:36;3.38;;;3.10;;
13698;SDS011;6921;53.642;9.956;2022-08-14T05:02:40;3.50;;;3.25;;
13698;SDS011;6921;53.642;9.956;2022-08-14T05:04:43;3.58;;;3.17;;
13698;SDS011;6921;53.642;9.956;2022-08-14T05:06:57;4.38;;;3.20;;
13698;SDS011;6921;53.642;9.956;2022-08-14T05:09:03;3.55;;;3.25;;
13698;SDS011;6921;53.642;9.956;2022-08-14T05:11:08;3.60;;;3.40;;
13698;SDS011;6921;53.642;9.956;2022-08-14T05:13:13;3.45;;;3.15;;
13698;SDS011;6921;53.642;9.956;2022-08-14T05:15:17;4.15;;;3.30;;
13698;SDS011;6921;53.642;9.956;2022-08-14T05:17:21;5.15;;;3.20;;
13698;SDS011;6921;53.642;9.956;2022-08-14T05:19:29;4.30;;;3.30;;
13698;SDS011;6921;53.642;9.956;2022-08-14T05:21:33;3.10;;;2.90;;
13698;SDS011;6921;53.642;9.956;2022-08-14T05:23:56;3.60;;;3.08;;
13698;SDS011;6921;53.642;9.956;2022-08-14T05:25:59;5.32;;;3.40;;
13698;SDS011;6921;53.642;9.956;2022-08-14T05:28:11;8.13;;;3.40;;
13698;SDS011;6921;53.642;9.956;2022-08-14T05:30:19;3.47;;;3.17;;
13698;SDS011;6921;53.642;9.956;2022-08-14T05:32:23;4.65;;;3.40;;
13698;SDS011;6921;53.642;9.956;2022-08-14T05:34:28;3.70;;;2.97;;
13698;SDS011;6921;53.642;9.956;2022-08-14T05:36:32;5.43;;;3.67;;
13698;SDS011;6921;53.642;9.956;2022-08-14T05:38:36;3.63;;;2.97;;
13698;SDS011;6921;53.642;9.956;2022-08-14T05:40:40;4.28;;;3.50;;
13698;SDS011;6921;53.642;9.956;2022-08-14T05:42:43;6.57;;;3.40;;
13698;SDS011;6921;53.642;9.956;2022-08-14T05:44:54;4.30;;;3.10;;
13698;SDS011;6921;53.642;9.956;2022-08-14T05:46:57;3.78;;;3.33;;
13698;SDS011;6921;53.642;9.956;2022-08-14T05:49:01;3.50;;;3.20;;
13698;SDS011;6921;53.642;9.956;2022-08-14T05:51:05;3.50;;;3.20;;
13698;SDS011;6921;53.642;9.956;2022-08-14T05:53:09;3.42;;;2.97;;
13698;SDS011;6921;53.642;9.956;2022-08-14T05:55:12;3.80;;;3.15;;
13698;SDS011;6921;53.642;9.956;2022-08-14T05:57:15;5.85;;;2.85;;
13698;SDS011;6921;53.642;9.956;2022-08-14T05:59:19;2.83;;;2.63;;
13698;SDS011;6921;53.642;9.956;2022-08-14T06:01:38;3.30;;;3.00;;
13698;SDS011;6921;53.642;9.956;2022-08-14T06:03:41;3.15;;;2.95;;
13698;SDS011;6921;53.642;9.956;2022-08-14T06:05:45;4.03;;;3.20;;
13698;SDS011;6921;53.642;9.956;2022-08-14T06:07:51;3.67;;;3.38;;
13698;SDS011;6921;53.642;9.956;2022-08-14T06:09:54;3.60;;;2.90;;
13698;SDS011;6921;53.642;9.956;2022-08-14T06:12:03;4.25;;;3.00;;
13698;SDS011;6921;53.642;9.956;2022-08-14T06:14:06;4.25;;;2.80;;
13698;SDS011;6921;53.642;9.956;2022-08-14T06:16:14;3.63;;;2.80;;
13698;SDS011;6921;53.642;9.956;2022-08-14T06:18:20;4.20;;;3.33;;
13698;SDS011;6921;53.642;9.956;2022-08-14T06:20:23;3.42;;;3.13;;
13698;SDS011;6921;53.642;9.956;2022-08-14T06:22:26;6.28;;;3.20;;
13698;SDS011;6921;53.642;9.956;2022-08-14T06:24:29;5.63;;;2.97;;
13698;SDS011;6921;53.642;9.956;2022-08-14T06:26:35;6.80;;;3.22;;
13698;SDS011;6921;53.642;9.956;2022-08-14T06:28:38;5.28;;;2.83;;
13698;SDS011;6921;53.642;9.956;2022-08-14T06:30:42;3.72;;;2.92;;
13698;SDS011;6921;53.642;9.956;2022-08-14T06:32:46;4.57;;;3.10;;
13698;SDS011;6921;53.642;9.956;2022-08-14T06:34:54;4.50;;;2.88;;
13698;SDS011;6921;53.642;9.956;2022-08-14T06:37:05;3.35;;;3.05;;
13698;SDS011;6921;53.642;9.956;2022-08-14T06:39:08;4.90;;;3.47;;
13698;SDS011;6921;53.642;9.956;2022-08-14T06:41:12;3.92;;;2.80;;
13698;SDS011;6921;53.642;9.956;2022-08-14T06:43:15;10.68;;;4.13;;
13698;SDS011;6921;53.642;9.956;2022-08-14T06:45:20;3.80;;;3.03;;
13698;SDS011;6921;53.642;9.956;2022-08-14T06:47:27;8.30;;;4.13;;
13698;SDS011;6921;53.642;9.956;2022-08-14T06:49:30;5.75;;;3.90;;
13698;SDS011;6921;53.642;9.956;2022-08-14T06:51:42;6.32;;;3.22;;
13698;SDS011;6921;53.642;9.956;2022-08-14T06:53:47;5.88;;;2.80;;
13698;SDS011;6921;53.642;9.956;2022-08-14T06:55:50;4.13;;;3.03;;
13698;SDS011;6921;53.642;9.956;2022-08-14T06:57:58;3.70;;;3.40;;
13698;SDS011;6921;53.642;9.956;2022-08-14T07:00:05;3.78;;;3.28;;
13698;SDS011;6921;53.642;9.956;2022-08-14T07:02:09;4.22;;;3.20;;
13698;SDS011;6921;53.642;9.956;2022-08-14T07:04:31;4.20;;;3.08;;
13698;SDS011;6921;53.642;9.956;2022-08-14T07:06:53;3.40;;;3.13;;
13698;SDS011;6921;53.642;9.956;2022-08-14T07:08:58;5.60;;;3.47;;
13698;SDS011;6921;53.642;9.956;2022-08-14T07:11:02;4.15;;;3.38;;
13698;SDS011;6921;53.642;9.956;2022-08-14T07:13:05;7.80;;;3.60;;
13698;SDS011;6921;53.642;9.956;2022-08-14T07:15:09;3.60;;;3.30;;
13698;SDS011;6921;53.642;9.956;2022-08-14T07:17:13;3.47;;;3.17;;
13698;SDS011;6921;53.642;9.956;2022-08-14T07:19:16;8.15;;;3.28;;
13698;SDS011;6921;53.642;9.956;2022-08-14T07:21:21;4.55;;;3.20;;
13698;SDS011;6921;53.642;9.956;2022-08-14T07:23:25;5.55;;;3.03;;
13698;SDS011;6921;53.642;9.956;2022-08-14T07:25:30;3.80;;;3.50;;
13698;SDS011;6921;53.642;9.956;2022-08-14T07:27:33;3.92;;;3.55;;
13698;SDS011;6921;53.642;9.956;2022-08-14T07:29:37;4.10;;;3.70;;
13698;SDS011;6921;53.642;9.956;2022-08-14T07:31:40;3.60;;;3.30;;
13698;SDS011;6921;53.642;9.956;2022-08-14T07:33:44;4.78;;;3.50;;
13698;SDS011;6921;53.642;9.956;2022-08-14T07:35:51;5.18;;;3.40;;
13698;SDS011;6921;53.642;9.956;2022-08-14T07:37:59;3.67;;;3.35;;
13698;SDS011;6921;53.642;9.956;2022-08-14T07:40:04;3.53;;;3.10;;
13698;SDS011;6921;53.642;9.956;2022-08-14T07:42:08;3.60;;;3.13;;
13698;SDS011;6921;53.642;9.956;2022-08-14T07:44:11;3.55;;;3.25;;
13698;SDS011;6921;53.642;9.956;2022-08-14T07:46:22;3.45;;;3.00;;
13698;SDS011;6921;53.642;9.956;2022-08-14T07:48:29;3.67;;;3.38;;
13698;SDS011;6921;53.642;9.956;2022-08-14T07:50:32;3.80;;;3.50;;
13698;SDS011;6921;53.642;9.956;2022-08-14T07:52:37;5.25;;;3.85;;
13698;SDS011;6921;53.642;9.956;2022-08-14T07:54:40;3.53;;;3.22;;
13698;SDS011;6921;53.642;9.956;2022-08-14T07:56:45;4.30;;;3.50;;
13698;SDS011;6921;53.642;9.956;2022-08-14T07:58:51;3.90;;;3.50;;
13698;SDS011;6921;53.642;9.956;2022-08-14T08:00:55;3.55;;;3.15;;
13698;SDS011;6921;53.642;9.956;2022-08-14T08:02:58;4.18;;;3.63;;
13698;SDS011;6921;53.642;9.956;2022-08-14T08:05:02;5.80;;;3.85;;
13698;SDS011;6921;53.642;9.956;2022-08-14T08:07:05;3.83;;;3.47;;
13698;SDS011;6921;53.642;9.956;2022-08-14T08:09:08;4.32;;;3.17;;
13698;SDS011;6921;53.642;9.956;2022-08-14T08:11:13;4.50;;;3.20;;
13698;SDS011;6921;53.642;9.956;2022-08-14T08:13:19;3.80;;;3.47;;
13698;SDS011;6921;53.642;9.956;2022-08-14T08:15:25;7.60;;;3.67;;
13698;SDS011;6921;53.642;9.956;2022-08-14T08:17:28;4.78;;;3.40;;
13698;SDS011;6921;53.642;9.956;2022-08-14T08:19:34;4.85;;;3.28;;
13698;SDS011;6921;53.642;9.956;2022-08-14T08:21:39;4.13;;;3.70;;
13698;SDS011;6921;53.642;9.956;2022-08-14T08:23:44;4.07;;;3.63;;
13698;SDS011;6921;53.642;9.956;2022-08-14T08:25:56;6.28;;;3.70;;
13698;SDS011;6921;53.642;9.956;2022-08-14T08:28:00;3.85;;;3.53;;
13698;SDS011;6921;53.642;9.956;2022-08-14T08:30:10;4.85;;;3.40;;
13698;SDS011;6921;53.642;9.956;2022-08-14T08:32:14;3.65;;;3.25;;
13698;SDS011;6921;53.642;9.956;2022-08-14T08:34:17;3.80;;;3.40;;
13698;SDS011;6921;53.642;9.956;2022-08-14T08:36:24;3.42;;;3.17;;
13698;SDS011;6921;53.642;9.956;2022-08-14T08:38:30;4.13;;;3.70;;
13698;SDS011;6921;53.642;9.956;2022-08-14T08:40:54;5.00;;;3.67;;
13698;SDS011;6921;53.642;9.956;2022-08-14T08:43:00;7.50;;;3.65;;
13698;SDS011;6921;53.642;9.956;2022-08-14T08:45:04;4.22;;;3.63;;
13698;SDS011;6921;53.642;9.956;2022-08-14T08:47:09;4.53;;;4.00;;
13698;SDS011;6921;53.642;9.956;2022-08-14T08:49:12;5.22;;;3.67;;
13698;SDS011;6921;53.642;9.956;2022-08-14T08:51:20;4.53;;;3.85;;
13698;SDS011;6921;53.642;9.956;2022-08-14T08:53:28;5.18;;;3.95;;
13698;SDS011;6921;53.642;9.956;2022-08-14T08:55:34;4.88;;;4.10;;
13698;SDS011;6921;53.642;9.956;2022-08-14T08:57:40;4.00;;;3.70;;
13698;SDS011;6921;53.642;9.956;2022-08-14T08:59:43;3.88;;;3.58;;
13698;SDS011;6921;53.642;9.956;2022-08-14T09:01:47;4.57;;;4.13;;
13698;SDS011;6921;53.642;9.956;2022-08-14T09:04:03;5.85;;;4.03;;
13698;SDS011;6921;53.642;9.956;2022-08-14T09:06:07;5.50;;;3.75;;
13698;SDS011;6921;53.642;9.956;2022-08-14T09:08:31;4.68;;;4.28;;
13698;SDS011;6921;53.642;9.956;2022-08-14T09:10:37;4.35;;;3.97;;
13698;SDS011;6921;53.642;9.956;2022-08-14T09:12:41;5.25;;;4.03;;
13698;SDS011;6921;53.642;9.956;2022-08-14T09:14:46;6.00;;;5.00;;
13698;SDS011;6921;53.642;9.956;2022-08-14T09:16:53;6.10;;;4.18;;
13698;SDS011;6921;53.642;9.956;2022-08-14T09:18:56;5.05;;;4.55;;
13698;SDS011;6921;53.642;9.956;2022-08-14T09:21:01;6.47;;;3.80;;
13698;SDS011;6921;53.642;9.956;2022-08-14T09:23:05;5.32;;;4.90;;
13698;SDS011;6921;53.642;9.956;2022-08-14T09:25:08;5.22;;;4.47;;
13698;SDS011;6921;53.642;9.956;2022-08-14T09:27:12;4.93;;;4.43;;
13698;SDS011;6921;53.642;9.956;2022-08-14T09:29:22;5.97;;;4.70;;
13698;SDS011;6921;53.642;9.956;2022-08-14T09:31:29;6.22;;;4.57;;
13698;SDS011;6921;53.642;9.956;2022-08-14T09:33:46;5.80;;;5.00;;
13698;SDS011;6921;53.642;9.956;2022-08-14T09:36:14;7.10;;;4.95;;
13698;SDS011;6921;53.642;9.956;2022-08-14T09:38:36;5.32;;;4.80;;
13698;SDS011;6921;53.642;9.956;2022-08-14T09:40:49;5.57;;;4.50;;
13698;SDS011;6921;53.642;9.956;2022-08-14T09:43:03;5.20;;;4.70;;
13698;SDS011;6921;53.642;9.956;2022-08-14T09:45:13;5.20;;;4.75;;
13698;SDS011;6921;53.642;9.956;2022-08-14T09:47:17;5.97;;;4.65;;
13698;SDS011;6921;53.642;9.956;2022-08-14T09:49:28;5.72;;;4.60;;
13698;SDS011;6921;53.642;9.956;2022-08-14T09:51:36;4.93;;;4.53;;
13698;SDS011;6921;53.642;9.956;2022-08-14T09:53:47;5.47;;;4.55;;
13698;SDS011;6921;53.642;9.956;2022-08-14T09:56:14;5.70;;;4.82;;
13698;SDS011;6921;53.642;9.956;2022-08-14T09:58:17;5.05;;;4.65;;
13698;SDS011;6921;53.642;9.956;2022-08-14T10:02:52;8.23;;;5.32;;
13698;SDS011;6921;53.642;9.956;2022-08-14T10:05:00;5.25;;;4.75;;
13698;SDS011;6921;53.642;9.956;2022-08-14T10:07:07;5.47;;;4.70;;
13698;SDS011;6921;53.642;9.956;2022-08-14T10:09:10;5.60;;;5.10;;
13698;SDS011;6921;53.642;9.956;2022-08-14T10:11:18;7.57;;;4.97;;
13698;SDS011;6921;53.642;9.956;2022-08-14T10:13:23;5.00;;;4.32;;
13698;SDS011;6921;53.642;9.956;2022-08-14T10:15:28;7.38;;;5.10;;
13698;SDS011;6921;53.642;9.956;2022-08-14T10:17:31;5.50;;;4.90;;
13698;SDS011;6921;53.642;9.956;2022-08-14T10:19:46;9.30;;;5.38;;
13698;SDS011;6921;53.642;9.956;2022-08-14T10:21:56;6.15;;;5.20;;
13698;SDS011;6921;53.642;9.956;2022-08-14T10:24:26;5.78;;;4.95;;
13698;SDS011;6921;53.642;9.956;2022-08-14T10:26:38;5.78;;;5.18;;
13698;SDS011;6921;53.642;9.956;2022-08-14T10:28:44;5.47;;;4.97;;
13698;SDS011;6921;53.642;9.956;2022-08-14T10:31:14;6.35;;;5.45;;
13698;SDS011;6921;53.642;9.956;2022-08-14T10:33:25;6.82;;;5.60;;
13698;SDS011;6921;53.642;9.956;2022-08-14T10:35:37;8.27;;;5.80;;
13698;SDS011;6921;53.642;9.956;2022-08-14T10:37:43;6.93;;;5.53;;
13698;SDS011;6921;53.642;9.956;2022-08-14T10:39:57;5.60;;;5.20;;
13698;SDS011;6921;53.642;9.956;2022-08-14T10:42:06;6.88;;;5.35;;
13698;SDS011;6921;53.642;9.956;2022-08-14T10:44:17;5.65;;;5.03;;
13698;SDS011;6921;53.642;9.956;2022-08-14T10:46:25;5.60;;;5.05;;
13698;SDS011;6921;53.642;9.956;2022-08-14T10:48:55;7.53;;;5.40;;
13698;SDS011;6921;53.642;9.956;2022-08-14T10:51:01;6.43;;;5.05;;
13698;SDS011;6921;53.642;9.956;2022-08-14T10:53:04;5.47;;;5.03;;
13698;SDS011;6921;53.642;9.956;2022-08-14T10:55:10;6.57;;;5.30;;
13698;SDS011;6921;53.642;9.956;2022-08-14T10:57:16;5.97;;;5.45;;
13698;SDS011;6921;53.642;9.956;2022-08-14T10:59:20;5.60;;;5.10;;
13698;SDS011;6921;53.642;9.956;2022-08-14T11:01:31;6.05;;;5.45;;
13698;SDS011;6921;53.642;9.956;2022-08-14T11:03:39;7.68;;;5.93;;
13698;SDS011;6921;53.642;9.956;2022-08-14T11:05:56;6.00;;;5.47;;
13698;SDS011;6921;53.642;9.956;2022-08-14T11:08:01;7.03;;;5.75;;
13698;SDS011;6921;53.642;9.956;2022-08-14T11:10:11;8.70;;;5.28;;
13698;SDS011;6921;53.642;9.956;2022-08-14T11:12:15;6.65;;;5.55;;
13698;SDS011;6921;53.642;9.956;2022-08-14T11:14:35;7.47;;;5.72;;
13698;SDS011;6921;53.642;9.956;2022-08-14T11:16:39;5.88;;;5.45;;
13698;SDS011;6921;53.642;9.956;2022-08-14T11:18:49;7.95;;;5.53;;
13698;SDS011;6921;53.642;9.956;2022-08-14T11:20:57;5.97;;;5.47;;
13698;SDS011;6921;53.642;9.956;2022-08-14T11:23:02;6.82;;;5.40;;
13698;SDS011;6921;53.642;9.956;2022-08-14T11:25:08;6.03;;;5.43;;
13698;SDS011;6921;53.642;9.956;2022-08-14T11:27:14;5.90;;;5.35;;
13698;SDS011;6921;53.642;9.956;2022-08-14T11:29:20;6.45;;;5.85;;
13698;SDS011;6921;53.642;9.956;2022-08-14T11:31:27;6.22;;;5.63;;
13698;SDS011;6921;53.642;9.956;2022-08-14T11:33:33;5.72;;;5.18;;
13698;SDS011;6921;53.642;9.956;2022-08-14T11:35:38;5.75;;;5.15;;
13698;SDS011;6921;53.642;9.956;2022-08-14T11:37:48;6.15;;;5.45;;
13698;SDS011;6921;53.642;9.956;2022-08-14T11:39:53;5.78;;;5.28;;
13698;SDS011;6921;53.642;9.956;2022-08-14T11:41:58;5.95;;;5.45;;
13698;SDS011;6921;53.642;9.956;2022-08-14T11:44:22;6.05;;;5.45;;
13698;SDS011;6921;53.642;9.956;2022-08-14T11:46:46;5.68;;;5.18;;
13698;SDS011;6921;53.642;9.956;2022-08-14T11:48:50;5.72;;;5.25;;
13698;SDS011;6921;53.642;9.956;2022-08-14T11:50:59;6.45;;;5.85;;
13698;SDS011;6921;53.642;9.956;2022-08-14T11:53:03;6.07;;;5.47;;
13698;SDS011;6921;53.642;9.956;2022-08-14T11:55:07;6.10;;;5.35;;
13698;SDS011;6921;53.642;9.956;2022-08-14T11:57:15;5.63;;;5.13;;
13698;SDS011;6921;53.642;9.956;2022-08-14T11:59:19;6.78;;;6.10;;
13698;SDS011;6921;53.642;9.956;2022-08-14T12:01:27;6.72;;;5.60;;
13698;SDS011;6921;53.642;9.956;2022-08-14T12:03:35;6.28;;;5.70;;
13698;SDS011;6921;53.642;9.956;2022-08-14T12:05:47;6.25;;;5.65;;
13698;SDS011;6921;53.642;9.956;2022-08-14T12:07:50;6.80;;;5.97;;
13698;SDS011;6921;53.642;9.956;2022-08-14T12:09:55;6.50;;;5.68;;
13698;SDS011;6921;53.642;9.956;2022-08-14T12:11:59;7.07;;;5.57;;
13698;SDS011;6921;53.642;9.956;2022-08-14T12:14:07;8.40;;;6.05;;
13698;SDS011;6921;53.642;9.956;2022-08-14T12:16:14;5.95;;;5.28;;
13698;SDS011;6921;53.642;9.956;2022-08-14T12:18:27;7.57;;;6.15;;
13698;SDS011;6921;53.642;9.956;2022-08-14T12:20:33;6.78;;;6.10;;
13698;SDS011;6921;53.642;9.956;2022-08-14T12:22:38;6.07;;;5.55;;
13698;SDS011;6921;53.642;9.956;2022-08-14T12:24:49;6.80;;;6.10;;
13698;SDS011;6921;53.642;9.956;2022-08-14T12:26:52;6.82;;;6.10;;
13698;SDS011;6921;53.642;9.956;2022-08-14T12:29:04;7.15;;;5.93;;
13698;SDS011;6921;53.642;9.956;2022-08-14T12:31:10;6.50;;;5.95;;
13698;SDS011;6921;53.642;9.956;2022-08-14T12:33:21;6.88;;;6.22;;
13698;SDS011;6921;53.642;9.956;2022-08-14T12:35:37;10.02;;;6.40;;
13698;SDS011;6921;53.642;9.956;2022-08-14T12:37:45;6.68;;;6.05;;
13698;SDS011;6921;53.642;9.956;2022-08-14T12:39:49;7.07;;;6.50;;
13698;SDS011;6921;53.642;9.956;2022-08-14T12:41:53;7.93;;;6.70;;
13698;SDS011;6921;53.642;9.956;2022-08-14T12:44:08;7.03;;;6.32;;
13698;SDS011;6921;53.642;9.956;2022-08-14T12:46:19;7.90;;;6.38;;
13698;SDS011;6921;53.642;9.956;2022-08-14T12:48:27;6.43;;;5.88;;
13698;SDS011;6921;53.642;9.956;2022-08-14T12:50:36;8.65;;;5.93;;
13698;SDS011;6921;53.642;9.956;2022-08-14T12:52:42;6.35;;;5.82;;
13698;SDS011;6921;53.642;9.956;2022-08-14T12:55:07;7.65;;;5.88;;
13698;SDS011;6921;53.642;9.956;2022-08-14T12:57:12;6.80;;;6.05;;
13698;SDS011;6921;53.642;9.956;2022-08-14T12:59:27;7.07;;;5.70;;
13698;SDS011;6921;53.642;9.956;2022-08-14T13:01:33;5.85;;;5.45;;